sensor_id;sensor_type;location;lat;lon;timestamp;pressure;altitude;pressure_sealevel;temperature;humidity
20630;BME280;17386;43.846;25.950;2023-02-19T00:02:06;101199.75;;;12.10;75.08
20630;BME280;17386;43.846;25.950;2023-02-19T00:04:31;101192.50;;;12.15;74.82
20630;BME280;17386;43.846;25.950;2023-02-19T00:06:57;101180.84;;;12.18;74.59
20630;BME280;17386;43.846;25.950;2023-02-19T00:09:22;101186.63;;;12.30;74.39
20630;BME280;17386;43.846;25.950;2023-02-19T00:11:48;101186.41;;;12.37;74.00
20630;BME280;17386;43.846;25.950;2023-02-19T00:14:15;101179.63;;;12.51;73.31
20630;BME280;17386;43.846;25.950;2023-02-19T00:16:40;101170.56;;;12.57;73.03
20630;BME280;17386;43.846;25.950;2023-02-19T00:19:09;101169.56;;;12.59;72.88
20630;BME280;17386;43.846;25.950;2023-02-19T00:21:35;101170.56;;;12.57;72.92
20630;BME280;17386;43.846;25.950;2023-02-19T00:24:03;101174.81;;;12.61;72.57
20630;BME280;17386;43.846;25.950;2023-02-19T00:26:29;101177.44;;;12.63;71.84
20630;BME280;17386;43.846;25.950;2023-02-19T00:28:55;101177.50;;;12.61;71.38
20630;BME280;17386;43.846;25.950;2023-02-19T00:31:29;101173.78;;;12.65;70.39
20630;BME280;17386;43.846;25.950;2023-02-19T00:33:57;101166.50;;;12.70;70.17
20630;BME280;17386;43.846;25.950;2023-02-19T00:36:24;101169.03;;;12.73;69.31
20630;BME280;17386;43.846;25.950;2023-02-19T00:38:50;101166.25;;;12.76;69.10
20630;BME280;17386;43.846;25.950;2023-02-19T00:41:17;101168.09;;;12.74;68.98
20630;BME280;17386;43.846;25.950;2023-02-19T00:44:04;101161.09;;;12.72;69.04
20630;BME280;17386;43.846;25.950;2023-02-19T00:46:31;101157.50;;;12.73;69.37
20630;BME280;17386;43.846;25.950;2023-02-19T00:48:57;101147.78;;;12.72;69.41
20630;BME280;17386;43.846;25.950;2023-02-19T00:51:28;101151.47;;;12.68;69.42
20630;BME280;17386;43.846;25.950;2023-02-19T00:53:55;101152.41;;;12.67;69.58
20630;BME280;17386;43.846;25.950;2023-02-19T00:56:20;101152.41;;;12.67;69.47
20630;BME280;17386;43.846;25.950;2023-02-19T00:58:46;101151.53;;;12.66;69.49
20630;BME280;17386;43.846;25.950;2023-02-19T01:01:12;101147.13;;;12.65;69.67
20630;BME280;17386;43.846;25.950;2023-02-19T01:03:38;101146.38;;;12.62;69.89
20630;BME280;17386;43.846;25.950;2023-02-19T01:06:05;101145.50;;;12.61;69.99
20630;BME280;17386;43.846;25.950;2023-02-19T01:08:31;101153.69;;;12.56;70.17
20630;BME280;17386;43.846;25.950;2023-02-19T01:10:58;101166.09;;;12.57;69.95
20630;BME280;17386;43.846;25.950;2023-02-19T01:13:23;101165.25;;;12.55;70.01
20630;BME280;17386;43.846;25.950;2023-02-19T01:15:49;101158.19;;;12.54;70.07
20630;BME280;17386;43.846;25.950;2023-02-19T01:18:14;101162.78;;;12.51;69.99
20630;BME280;17386;43.846;25.950;2023-02-19T01:20:41;101169.69;;;12.56;69.87
20630;BME280;17386;43.846;25.950;2023-02-19T01:23:07;101174.38;;;12.50;69.98
20630;BME280;17386;43.846;25.950;2023-02-19T01:25:33;101173.72;;;12.43;70.16
20630;BME280;17386;43.846;25.950;2023-02-19T01:27:58;101174.81;;;12.38;70.39
20630;BME280;17386;43.846;25.950;2023-02-19T01:30:24;101163.88;;;12.20;70.90
20630;BME280;17386;43.846;25.950;2023-02-19T01:32:49;101166.53;;;12.20;71.02
20630;BME280;17386;43.846;25.950;2023-02-19T01:35:14;101152.53;;;12.15;71.02
20630;BME280;17386;43.846;25.950;2023-02-19T01:37:40;101164.28;;;12.10;70.96
20630;BME280;17386;43.846;25.950;2023-02-19T01:40:05;101159.03;;;12.07;70.77
20630;BME280;17386;43.846;25.950;2023-02-19T01:42:31;101153.03;;;12.01;70.82
20630;BME280;17386;43.846;25.950;2023-02-19T01:45:27;101154.03;;;11.97;70.68
20630;BME280;17386;43.846;25.950;2023-02-19T01:48:23;101156.91;;;11.91;70.99
20630;BME280;17386;43.846;25.950;2023-02-19T01:51:12;101161.69;;;11.82;71.33
20630;BME280;17386;43.846;25.950;2023-02-19T01:53:44;101156.63;;;11.72;71.63
20630;BME280;17386;43.846;25.950;2023-02-19T01:56:12;101158.75;;;11.63;72.27
20630;BME280;17386;43.846;25.950;2023-02-19T01:58:39;101168.84;;;11.53;72.69
20630;BME280;17386;43.846;25.950;2023-02-19T02:01:06;101175.06;;;11.52;73.19
20630;BME280;17386;43.846;25.950;2023-02-19T02:03:34;101175.91;;;11.54;73.17
20630;BME280;17386;43.846;25.950;2023-02-19T02:06:17;101176.09;;;11.48;73.34
20630;BME280;17386;43.846;25.950;2023-02-19T02:08:46;101171.69;;;11.47;73.27
20630;BME280;17386;43.846;25.950;2023-02-19T02:11:30;101174.59;;;11.39;73.25
20630;BME280;17386;43.846;25.950;2023-02-19T02:13:56;101181.59;;;11.42;73.07
20630;BME280;17386;43.846;25.950;2023-02-19T02:22:00;101181.22;;;11.26;73.34
20630;BME280;17386;43.846;25.950;2023-02-19T02:24:49;101181.19;;;11.28;73.21
20630;BME280;17386;43.846;25.950;2023-02-19T02:30:16;101178.69;;;11.21;73.00
20630;BME280;17386;43.846;25.950;2023-02-19T02:35:29;101199.06;;;11.22;72.86
20630;BME280;17386;43.846;25.950;2023-02-19T02:38:01;101206.97;;;11.24;72.89
20630;BME280;17386;43.846;25.950;2023-02-19T02:40:27;101196.50;;;11.19;72.96
20630;BME280;17386;43.846;25.950;2023-02-19T02:42:56;101207.22;;;11.16;73.07
20630;BME280;17386;43.846;25.950;2023-02-19T02:45:24;101211.66;;;11.16;72.92
20630;BME280;17386;43.846;25.950;2023-02-19T02:48:00;101213.56;;;11.12;72.96
20630;BME280;17386;43.846;25.950;2023-02-19T02:50:32;101213.66;;;11.09;73.20
20630;BME280;17386;43.846;25.950;2023-02-19T02:53:02;101216.41;;;11.06;73.18
20630;BME280;17386;43.846;25.950;2023-02-19T02:55:50;101226.31;;;11.01;73.28
20630;BME280;17386;43.846;25.950;2023-02-19T02:58:19;101222.94;;;10.94;73.40
20630;BME280;17386;43.846;25.950;2023-02-19T03:00:52;101233.63;;;10.93;73.62
20630;BME280;17386;43.846;25.950;2023-02-19T03:03:38;101226.72;;;10.87;73.94
20630;BME280;17386;43.846;25.950;2023-02-19T03:06:08;101231.03;;;10.91;73.83
20630;BME280;17386;43.846;25.950;2023-02-19T03:08:39;101232.06;;;10.86;73.71
20630;BME280;17386;43.846;25.950;2023-02-19T03:11:09;101224.44;;;10.74;74.33
20630;BME280;17386;43.846;25.950;2023-02-19T03:14:00;101231.56;;;10.73;74.44
20630;BME280;17386;43.846;25.950;2023-02-19T03:16:50;101228.25;;;10.65;74.56
20630;BME280;17386;43.846;25.950;2023-02-19T03:19:34;101229.13;;;10.65;74.70
20630;BME280;17386;43.846;25.950;2023-02-19T03:22:07;101241.66;;;10.60;74.87
20630;BME280;17386;43.846;25.950;2023-02-19T03:24:40;101245.22;;;10.59;75.01
20630;BME280;17386;43.846;25.950;2023-02-19T03:27:27;101243.50;;;10.58;74.94
20630;BME280;17386;43.846;25.950;2023-02-19T03:29:57;101250.59;;;10.58;75.09
20630;BME280;17386;43.846;25.950;2023-02-19T03:35:20;101241.16;;;10.46;75.81
20630;BME280;17386;43.846;25.950;2023-02-19T03:38:12;101249.19;;;10.45;76.15
20630;BME280;17386;43.846;25.950;2023-02-19T03:40:59;101246.78;;;10.34;76.68
20630;BME280;17386;43.846;25.950;2023-02-19T03:43:39;101257.41;;;10.34;76.69
20630;BME280;17386;43.846;25.950;2023-02-19T03:46:13;101254.84;;;10.31;77.16
20630;BME280;17386;43.846;25.950;2023-02-19T03:49:01;101239.84;;;10.30;77.02
20630;BME280;17386;43.846;25.950;2023-02-19T03:54:20;101249.75;;;10.23;77.41
20630;BME280;17386;43.846;25.950;2023-02-19T03:56:59;101246.31;;;10.18;77.81
20630;BME280;17386;43.846;25.950;2023-02-19T03:59:32;101255.25;;;10.14;78.14
20630;BME280;17386;43.846;25.950;2023-02-19T04:02:08;101260.75;;;10.06;78.40
20630;BME280;17386;43.846;25.950;2023-02-19T04:04:38;101259.84;;;10.07;78.53
20630;BME280;17386;43.846;25.950;2023-02-19T04:07:05;101274.94;;;10.05;78.62
20630;BME280;17386;43.846;25.950;2023-02-19T04:09:36;101266.94;;;10.07;78.80
20630;BME280;17386;43.846;25.950;2023-02-19T04:12:05;101274.19;;;10.00;79.35
20630;BME280;17386;43.846;25.950;2023-02-19T04:14:43;101267.06;;;10.01;79.53
20630;BME280;17386;43.846;25.950;2023-02-19T04:17:23;101266.16;;;10.02;79.50
20630;BME280;17386;43.846;25.950;2023-02-19T04:19:52;101265.28;;;10.01;79.49
20630;BME280;17386;43.846;25.950;2023-02-19T04:22:19;101261.91;;;9.95;79.64
20630;BME280;17386;43.846;25.950;2023-02-19T04:24:49;101253.19;;;9.91;79.72
20630;BME280;17386;43.846;25.950;2023-02-19T04:27:16;101267.38;;;9.90;79.88
20630;BME280;17386;43.846;25.950;2023-02-19T04:29:42;101263.84;;;9.90;79.92
20630;BME280;17386;43.846;25.950;2023-02-19T04:32:11;101274.56;;;9.85;80.19
20630;BME280;17386;43.846;25.950;2023-02-19T04:34:37;101275.44;;;9.85;80.40
20630;BME280;17386;43.846;25.950;2023-02-19T04:37:03;101274.66;;;9.82;80.53
20630;BME280;17386;43.846;25.950;2023-02-19T04:39:29;101277.25;;;9.83;80.43
20630;BME280;17386;43.846;25.950;2023-02-19T04:41:54;101281.59;;;9.86;80.28
20630;BME280;17386;43.846;25.950;2023-02-19T04:44:20;101282.41;;;9.90;80.11
20630;BME280;17386;43.846;25.950;2023-02-19T04:46:45;101282.41;;;9.90;79.96
20630;BME280;17386;43.846;25.950;2023-02-19T04:49:10;101284.31;;;9.84;80.20
20630;BME280;17386;43.846;25.950;2023-02-19T04:51:37;101286.91;;;9.86;80.41
20630;BME280;17386;43.846;25.950;2023-02-19T04:54:02;101286.13;;;9.81;80.52
20630;BME280;17386;43.846;25.950;2023-02-19T04:56:28;101294.19;;;9.78;80.88
20630;BME280;17386;43.846;25.950;2023-02-19T04:58:53;101288.25;;;9.68;81.56
20630;BME280;17386;43.846;25.950;2023-02-19T05:01:18;101287.47;;;9.63;82.18
20630;BME280;17386;43.846;25.950;2023-02-19T05:03:44;101300.03;;;9.55;82.85
20630;BME280;17386;43.846;25.950;2023-02-19T05:06:11;101300.13;;;9.50;83.41
20630;BME280;17386;43.846;25.950;2023-02-19T05:08:37;101311.72;;;9.45;84.00
20630;BME280;17386;43.846;25.950;2023-02-19T05:11:04;101308.31;;;9.40;84.63
20630;BME280;17386;43.846;25.950;2023-02-19T05:13:30;101320.91;;;9.30;85.47
20630;BME280;17386;43.846;25.950;2023-02-19T05:16:08;101317.41;;;9.28;85.82
20630;BME280;17386;43.846;25.950;2023-02-19T05:18:34;101314.84;;;9.23;86.41
20630;BME280;17386;43.846;25.950;2023-02-19T05:21:00;101326.41;;;9.19;86.71
20630;BME280;17386;43.846;25.950;2023-02-19T05:23:26;101330.84;;;9.19;86.81
20630;BME280;17386;43.846;25.950;2023-02-19T05:25:52;101331.88;;;9.13;86.91
20630;BME280;17386;43.846;25.950;2023-02-19T05:28:17;101331.75;;;9.18;86.65
20630;BME280;17386;43.846;25.950;2023-02-19T05:30:51;101329.88;;;9.23;86.29
20630;BME280;17386;43.846;25.950;2023-02-19T05:33:19;101336.88;;;9.27;85.90
20630;BME280;17386;43.846;25.950;2023-02-19T05:35:47;101344.75;;;9.30;85.81
20630;BME280;17386;43.846;25.950;2023-02-19T05:38:13;101348.25;;;9.32;85.68
20630;BME280;17386;43.846;25.950;2023-02-19T05:40:39;101364.06;;;9.37;85.59
20630;BME280;17386;43.846;25.950;2023-02-19T05:43:05;101368.47;;;9.38;85.42
20630;BME280;17386;43.846;25.950;2023-02-19T05:45:30;101378.06;;;9.43;85.56
20630;BME280;17386;43.846;25.950;2023-02-19T05:47:56;101380.75;;;9.42;85.54
20630;BME280;17386;43.846;25.950;2023-02-19T05:50:22;101381.72;;;9.38;85.73
20630;BME280;17386;43.846;25.950;2023-02-19T05:52:47;101387.03;;;9.38;85.92
20630;BME280;17386;43.846;25.950;2023-02-19T05:55:12;101385.25;;;9.38;86.15
20630;BME280;17386;43.846;25.950;2023-02-19T05:57:46;101389.78;;;9.31;86.68
20630;BME280;17386;43.846;25.950;2023-02-19T06:00:14;101394.41;;;9.22;87.54
20630;BME280;17386;43.846;25.950;2023-02-19T06:02:40;101397.91;;;9.24;87.81
20630;BME280;17386;43.846;25.950;2023-02-19T06:05:06;101395.22;;;9.25;87.88
20630;BME280;17386;43.846;25.950;2023-02-19T06:07:32;101406.81;;;9.21;88.35
20630;BME280;17386;43.846;25.950;2023-02-19T06:09:58;101408.47;;;9.25;88.38
20630;BME280;17386;43.846;25.950;2023-02-19T06:12:23;101418.16;;;9.28;88.16
20630;BME280;17386;43.846;25.950;2023-02-19T06:14:49;101410.94;;;9.36;88.20
20630;BME280;17386;43.846;25.950;2023-02-19T06:17:15;101420.50;;;9.43;88.05
20630;BME280;17386;43.846;25.950;2023-02-19T06:19:40;101427.41;;;9.52;87.76
20630;BME280;17386;43.846;25.950;2023-02-19T06:22:06;101435.53;;;9.43;88.14
20630;BME280;17386;43.846;25.950;2023-02-19T06:24:32;101427.59;;;9.43;88.19
20630;BME280;17386;43.846;25.950;2023-02-19T06:26:57;101427.63;;;9.40;88.31
20630;BME280;17386;43.846;25.950;2023-02-19T06:29:23;101433.81;;;9.42;88.48
20630;BME280;17386;43.846;25.950;2023-02-19T06:31:48;101435.38;;;9.50;88.39
20630;BME280;17386;43.846;25.950;2023-02-19T06:34:14;101433.50;;;9.57;88.09
20630;BME280;17386;43.846;25.950;2023-02-19T06:36:39;101432.28;;;9.72;87.73
20630;BME280;17386;43.846;25.950;2023-02-19T06:39:05;101419.94;;;9.71;87.13
20630;BME280;17386;43.846;25.950;2023-02-19T06:41:30;101419.94;;;9.71;87.55
20630;BME280;17386;43.846;25.950;2023-02-19T06:43:57;101426.78;;;9.82;87.28
20630;BME280;17386;43.846;25.950;2023-02-19T06:46:22;101424.00;;;9.87;87.14
20630;BME280;17386;43.846;25.950;2023-02-19T06:48:48;101437.09;;;9.95;87.16
20630;BME280;17386;43.846;25.950;2023-02-19T06:51:15;101435.88;;;10.11;86.92
20630;BME280;17386;43.846;25.950;2023-02-19T06:53:48;101439.13;;;10.22;86.87
20630;BME280;17386;43.846;25.950;2023-02-19T06:56:34;101454.91;;;10.31;86.54
20630;BME280;17386;43.846;25.950;2023-02-19T06:59:03;101449.38;;;10.40;86.80
20630;BME280;17386;43.846;25.950;2023-02-19T07:01:31;101456.97;;;10.56;86.71
20630;BME280;17386;43.846;25.950;2023-02-19T07:03:57;101449.56;;;10.68;86.50
20630;BME280;17386;43.846;25.950;2023-02-19T07:06:23;101443.84;;;10.84;85.92
20630;BME280;17386;43.846;25.950;2023-02-19T07:08:50;101444.72;;;10.86;86.24
20630;BME280;17386;43.846;25.950;2023-02-19T07:11:16;101444.53;;;10.93;86.21
20630;BME280;17386;43.846;25.950;2023-02-19T07:13:43;101442.56;;;11.00;86.27
20630;BME280;17386;43.846;25.950;2023-02-19T07:16:10;101445.69;;;11.16;86.00
20630;BME280;17386;43.846;25.950;2023-02-19T07:18:36;101442.00;;;11.21;86.13
20630;BME280;17386;43.846;25.950;2023-02-19T07:21:03;101446.06;;;11.35;86.00
20630;BME280;17386;43.846;25.950;2023-02-19T07:23:29;101428.75;;;11.51;85.63
20630;BME280;17386;43.846;25.950;2023-02-19T07:25:55;101417.66;;;11.66;84.99
20630;BME280;17386;43.846;25.950;2023-02-19T07:28:20;101412.91;;;11.77;84.51
20630;BME280;17386;43.846;25.950;2023-02-19T07:30:46;101415.47;;;11.82;84.33
20630;BME280;17386;43.846;25.950;2023-02-19T07:33:11;101414.06;;;11.98;83.57
20630;BME280;17386;43.846;25.950;2023-02-19T07:35:36;101413.69;;;12.11;83.11
20630;BME280;17386;43.846;25.950;2023-02-19T07:38:02;101405.56;;;12.15;82.54
20630;BME280;17386;43.846;25.950;2023-02-19T07:40:27;101411.31;;;12.29;81.83
20630;BME280;17386;43.846;25.950;2023-02-19T07:42:52;101402.09;;;12.40;81.42
20630;BME280;17386;43.846;25.950;2023-02-19T07:45:18;101404.56;;;12.46;80.93
20630;BME280;17386;43.846;25.950;2023-02-19T07:47:43;101401.66;;;12.53;80.70
20630;BME280;17386;43.846;25.950;2023-02-19T07:50:09;101410.63;;;12.51;80.58
20630;BME280;17386;43.846;25.950;2023-02-19T07:52:34;101413.09;;;12.57;80.83
20630;BME280;17386;43.846;25.950;2023-02-19T07:55:01;101402.84;;;12.71;80.00
20630;BME280;17386;43.846;25.950;2023-02-19T07:57:27;101411.28;;;12.84;79.46
20630;BME280;17386;43.846;25.950;2023-02-19T07:59:53;101421.50;;;12.96;79.48
20630;BME280;17386;43.846;25.950;2023-02-19T08:02:19;101423.38;;;12.94;79.38
20630;BME280;17386;43.846;25.950;2023-02-19T08:05:05;101422.06;;;13.06;79.01
20630;BME280;17386;43.846;25.950;2023-02-19T08:07:34;101424.22;;;13.21;78.07
20630;BME280;17386;43.846;25.950;2023-02-19T08:10:01;101406.25;;;13.26;77.34
20630;BME280;17386;43.846;25.950;2023-02-19T08:12:54;101403.97;;;13.40;76.77
20630;BME280;17386;43.846;25.950;2023-02-19T08:15:46;101419.84;;;13.44;76.78
20630;BME280;17386;43.846;25.950;2023-02-19T08:18:12;101402.00;;;13.46;76.75
20630;BME280;17386;43.846;25.950;2023-02-19T08:20:38;101400.72;;;13.56;75.78
20630;BME280;17386;43.846;25.950;2023-02-19T08:23:04;101401.06;;;13.70;75.57
20630;BME280;17386;43.846;25.950;2023-02-19T08:25:29;101408.91;;;13.75;75.45
20630;BME280;17386;43.846;25.950;2023-02-19T08:27:55;101401.59;;;13.80;75.13
20630;BME280;17386;43.846;25.950;2023-02-19T08:30:21;101399.72;;;13.82;75.45
20630;BME280;17386;43.846;25.950;2023-02-19T08:32:46;101399.19;;;13.95;74.76
20630;BME280;17386;43.846;25.950;2023-02-19T08:35:12;101399.06;;;14.20;74.07
20630;BME280;17386;43.846;25.950;2023-02-19T08:37:37;101401.16;;;14.36;73.58
20630;BME280;17386;43.846;25.950;2023-02-19T08:40:03;101405.81;;;14.53;72.49
20630;BME280;17386;43.846;25.950;2023-02-19T08:42:28;101399.97;;;14.65;71.76
20630;BME280;17386;43.846;25.950;2023-02-19T08:44:54;101396.63;;;14.80;72.01
20630;BME280;17386;43.846;25.950;2023-02-19T08:47:20;101406.41;;;15.01;71.47
20630;BME280;17386;43.846;25.950;2023-02-19T08:49:45;101410.78;;;15.04;70.69
20630;BME280;17386;43.846;25.950;2023-02-19T08:52:11;101402.13;;;15.18;69.81
20630;BME280;17386;43.846;25.950;2023-02-19T08:54:36;101415.56;;;15.16;69.92
20630;BME280;17386;43.846;25.950;2023-02-19T08:57:01;101405.78;;;15.36;68.95
20630;BME280;17386;43.846;25.950;2023-02-19T08:59:29;101409.06;;;15.22;68.96
20630;BME280;17386;43.846;25.950;2023-02-19T09:01:54;101407.34;;;15.00;69.00
20630;BME280;17386;43.846;25.950;2023-02-19T09:04:20;101404.56;;;15.03;69.36
20630;BME280;17386;43.846;25.950;2023-02-19T09:06:45;101402.41;;;15.12;69.58
20630;BME280;17386;43.846;25.950;2023-02-19T09:09:11;101403.38;;;15.09;69.56
20630;BME280;17386;43.846;25.950;2023-02-19T09:11:39;101400.84;;;15.26;68.70
20630;BME280;17386;43.846;25.950;2023-02-19T09:14:05;101401.19;;;15.19;68.89
20630;BME280;17386;43.846;25.950;2023-02-19T09:16:34;101404.81;;;15.18;68.43
20630;BME280;17386;43.846;25.950;2023-02-19T09:19:00;101389.28;;;15.26;68.51
20630;BME280;17386;43.846;25.950;2023-02-19T09:21:25;101381.59;;;15.37;68.03
20630;BME280;17386;43.846;25.950;2023-02-19T09:23:51;101375.22;;;15.60;67.38
20630;BME280;17386;43.846;25.950;2023-02-19T09:26:16;101378.22;;;15.73;66.67
20630;BME280;17386;43.846;25.950;2023-02-19T09:28:42;101379.44;;;15.84;66.16
20630;BME280;17386;43.846;25.950;2023-02-19T09:31:10;101373.44;;;15.98;64.94
20630;BME280;17386;43.846;25.950;2023-02-19T09:33:36;101371.59;;;16.18;63.96
20630;BME280;17386;43.846;25.950;2023-02-19T09:36:02;101369.13;;;16.49;63.40
20630;BME280;17386;43.846;25.950;2023-02-19T09:38:28;101373.25;;;16.56;62.77
20630;BME280;17386;43.846;25.950;2023-02-19T09:40:58;101364.25;;;16.57;62.90
20630;BME280;17386;43.846;25.950;2023-02-19T09:43:30;101370.00;;;16.50;61.84
20630;BME280;17386;43.846;25.950;2023-02-19T09:46:08;101365.50;;;16.67;61.60
20630;BME280;17386;43.846;25.950;2023-02-19T09:48:36;101352.94;;;16.70;60.58
20630;BME280;17386;43.846;25.950;2023-02-19T09:51:02;101351.00;;;16.54;60.94
20630;BME280;17386;43.846;25.950;2023-02-19T09:53:40;101359.69;;;16.94;60.60
20630;BME280;17386;43.846;25.950;2023-02-19T09:56:08;101351.41;;;16.99;59.26
20630;BME280;17386;43.846;25.950;2023-02-19T09:58:38;101348.50;;;17.03;59.58
20630;BME280;17386;43.846;25.950;2023-02-19T10:01:09;101351.88;;;17.40;58.91
20630;BME280;17386;43.846;25.950;2023-02-19T10:03:40;101341.13;;;17.40;58.24
20630;BME280;17386;43.846;25.950;2023-02-19T10:06:23;101341.81;;;17.76;57.11
20630;BME280;17386;43.846;25.950;2023-02-19T10:08:51;101334.44;;;17.96;56.23
20630;BME280;17386;43.846;25.950;2023-02-19T10:11:17;101335.72;;;18.04;56.13
20630;BME280;17386;43.846;25.950;2023-02-19T10:13:48;101341.13;;;18.50;54.58
20630;BME280;17386;43.846;25.950;2023-02-19T10:16:23;101336.63;;;18.67;53.80
20630;BME280;17386;43.846;25.950;2023-02-19T10:18:50;101340.56;;;18.75;51.85
20630;BME280;17386;43.846;25.950;2023-02-19T10:21:24;101318.09;;;18.91;52.77
20630;BME280;17386;43.846;25.950;2023-02-19T10:23:56;101328.84;;;18.76;52.40
20630;BME280;17386;43.846;25.950;2023-02-19T10:26:23;101328.56;;;18.81;52.80
20630;BME280;17386;43.846;25.950;2023-02-19T10:28:49;101315.91;;;19.26;51.80
20630;BME280;17386;43.846;25.950;2023-02-19T10:31:20;101314.56;;;19.61;50.50
20630;BME280;17386;43.846;25.950;2023-02-19T10:33:51;101322.63;;;19.33;50.35
20630;BME280;17386;43.846;25.950;2023-02-19T10:36:39;101307.75;;;19.97;49.38
20630;BME280;17386;43.846;25.950;2023-02-19T10:39:45;101299.84;;;19.24;49.69
20630;BME280;17386;43.846;25.950;2023-02-19T10:42:19;101294.94;;;19.31;50.05
20630;BME280;17386;43.846;25.950;2023-02-19T10:44:50;101273.38;;;19.45;49.57
20630;BME280;17386;43.846;25.950;2023-02-19T10:47:22;101272.56;;;19.72;49.50
20630;BME280;17386;43.846;25.950;2023-02-19T10:49:50;101283.28;;;20.40;48.19
20630;BME280;17386;43.846;25.950;2023-02-19T10:52:20;101269.13;;;20.36;47.66
20630;BME280;17386;43.846;25.950;2023-02-19T10:54:50;101268.63;;;20.17;47.53
20630;BME280;17386;43.846;25.950;2023-02-19T11:00:19;101255.94;;;20.19;47.44
20630;BME280;17386;43.846;25.950;2023-02-19T11:02:46;101238.22;;;19.47;49.38
20630;BME280;17386;43.846;25.950;2023-02-19T11:07:48;101250.28;;;19.27;49.92
20630;BME280;17386;43.846;25.950;2023-02-19T11:10:35;101258.84;;;19.33;50.00
20630;BME280;17386;43.846;25.950;2023-02-19T11:13:03;101241.59;;;19.50;49.19
20630;BME280;17386;43.846;25.950;2023-02-19T11:15:31;101248.94;;;19.34;49.01
20630;BME280;17386;43.846;25.950;2023-02-19T11:20:51;101242.81;;;18.89;50.94
20630;BME280;17386;43.846;25.950;2023-02-19T11:23:22;101236.94;;;18.97;50.08
20630;BME280;17386;43.846;25.950;2023-02-19T11:25:51;101239.66;;;18.82;50.98
20630;BME280;17386;43.846;25.950;2023-02-19T11:28:57;101224.50;;;18.66;51.60
20630;BME280;17386;43.846;25.950;2023-02-19T11:31:25;101236.59;;;18.58;51.91
20630;BME280;17386;43.846;25.950;2023-02-19T11:33:58;101230.19;;;18.61;52.27
20630;BME280;17386;43.846;25.950;2023-02-19T11:38:50;101225.59;;;18.77;51.09
20630;BME280;17386;43.846;25.950;2023-02-19T12:01:50;101220.22;;;18.77;51.36
20630;BME280;17386;43.846;25.950;2023-02-19T12:07:05;101208.47;;;19.07;50.20
20630;BME280;17386;43.846;25.950;2023-02-19T12:23:19;101197.25;;;19.41;49.00
20630;BME280;17386;43.846;25.950;2023-02-19T12:40:17;101192.47;;;18.33;51.80
20630;BME280;17386;43.846;25.950;2023-02-19T12:48:35;101201.31;;;18.04;52.06
20630;BME280;17386;43.846;25.950;2023-02-19T12:51:15;101171.19;;;17.84;53.10
20630;BME280;17386;43.846;25.950;2023-02-19T12:56:18;101164.47;;;18.07;53.25
20630;BME280;17386;43.846;25.950;2023-02-19T12:58:52;101160.31;;;18.01;52.65
20630;BME280;17386;43.846;25.950;2023-02-19T13:01:24;101164.47;;;18.07;53.07
20630;BME280;17386;43.846;25.950;2023-02-19T13:04:16;101168.53;;;17.98;52.68
20630;BME280;17386;43.846;25.950;2023-02-19T13:06:44;101148.59;;;18.02;52.72
20630;BME280;17386;43.846;25.950;2023-02-19T13:09:33;101143.06;;;18.05;53.06
20630;BME280;17386;43.846;25.950;2023-02-19T13:14:42;101143.75;;;18.23;52.88
20630;BME280;17386;43.846;25.950;2023-02-19T13:17:19;101139.06;;;18.26;52.73
20630;BME280;17386;43.846;25.950;2023-02-19T13:19:50;101129.25;;;18.25;52.30
20630;BME280;17386;43.846;25.950;2023-02-19T13:22:28;101134.66;;;18.40;52.68
20630;BME280;17386;43.846;25.950;2023-02-19T13:25:15;101143.47;;;18.56;52.59
20630;BME280;17386;43.846;25.950;2023-02-19T13:27:54;101132.91;;;18.39;53.41
20630;BME280;17386;43.846;25.950;2023-02-19T13:30:31;101125.03;;;18.64;53.02
20630;BME280;17386;43.846;25.950;2023-02-19T13:33:01;101121.59;;;18.48;53.35
20630;BME280;17386;43.846;25.950;2023-02-19T13:38:37;101110.03;;;18.31;53.99
20630;BME280;17386;43.846;25.950;2023-02-19T13:41:03;101111.09;;;18.43;53.88
20630;BME280;17386;43.846;25.950;2023-02-19T13:43:34;101110.81;;;18.48;53.74
20630;BME280;17386;43.846;25.950;2023-02-19T13:46:05;101105.34;;;18.49;52.54
20630;BME280;17386;43.846;25.950;2023-02-19T14:19:59;101092.69;;;17.79;56.45
20630;BME280;17386;43.846;25.950;2023-02-19T14:25:31;101090.50;;;17.69;56.48
20630;BME280;17386;43.846;25.950;2023-02-19T14:30:57;101093.75;;;17.60;57.03
20630;BME280;17386;43.846;25.950;2023-02-19T14:33:36;101083.56;;;17.51;57.64
20630;BME280;17386;43.846;25.950;2023-02-19T14:36:08;101090.03;;;17.47;57.81
20630;BME280;17386;43.846;25.950;2023-02-19T14:38:45;101077.47;;;17.47;57.89
20630;BME280;17386;43.846;25.950;2023-02-19T14:41:12;101091.88;;;17.46;58.26
20630;BME280;17386;43.846;25.950;2023-02-19T14:43:38;101079.03;;;17.52;58.44
20630;BME280;17386;43.846;25.950;2023-02-19T14:48:51;101064.50;;;17.40;59.06
20630;BME280;17386;43.846;25.950;2023-02-19T14:51:38;101062.31;;;17.46;59.30
20630;BME280;17386;43.846;25.950;2023-02-19T14:54:17;101070.28;;;17.48;59.42
20630;BME280;17386;43.846;25.950;2023-02-19T14:56:47;101074.94;;;17.30;59.99
20630;BME280;17386;43.846;25.950;2023-02-19T14:59:24;101072.25;;;17.30;59.77
20630;BME280;17386;43.846;25.950;2023-02-19T15:02:02;101069.56;;;17.30;60.04
20630;BME280;17386;43.846;25.950;2023-02-19T15:04:34;101083.50;;;17.37;59.69
20630;BME280;17386;43.846;25.950;2023-02-19T15:07:02;101080.88;;;17.35;60.21
20630;BME280;17386;43.846;25.950;2023-02-19T15:09:32;101078.28;;;17.34;60.34
20630;BME280;17386;43.846;25.950;2023-02-19T15:12:00;101077.63;;;17.30;60.38